Udine - Rivolto, Italy

6:23 PM CEST on June 03, 2015 (GMT +0200)
Bertiolo | | Change Station
CLOSE
Current Station
Personal Weather Station
Location: Bertiolo, FRIULI-VENEZIA GIULIA
Elevation: 102 ft
Nearby Weather Stations

Elev 102 ft 45.94 °N, 13.05 °E | Updated 13 minutes ago

Clear
Clear
90.8 °F
Feels Like 92 °F
N
1.0
Wind Variable Wind from SW
Gusts 4.0 mph

Today
High -- | Low -- °F
--% Chance of Precip.
Yesterday
High -- | Low -- °F
Precip. -- in
5:19 AM 8:52 PM
Full, 99% visible
Pressure 30.09 in
Visibility 6.2 miles
Clouds Clear
Heat Index 92 °F
Dew Point 63 °F
Humidity 39%
Rainfall 0.00 in
Snow Depth Not available.
UV 1.1 out of 12
Pollen Not available.
Air Quality Not available.
Flu Activity Not available.
METAR LIYW 031558Z AUTO 23005KT 9999 CLR 31/15 A3010 RMK AO2 SLP190 T03050154 $

More Conditions Fewer Conditions

Pressure 30.09 in
Visibility 6.2 miles
Clouds Clear
Heat Index 92 °F
Dew Point 63 °F
Humidity 39%
Rainfall 0.00 in
Snow Depth Not available.
UV 1.1 out of 12
Pollen Not available.
Air Quality Not available.
Flu Activity Not available.
METAR LIYW 031558Z AUTO 23005KT 9999 CLR 31/15 A3010 RMK AO2 SLP190 T03050154 $

More Conditions Fewer Conditions

10-Day Weather Forecast

×

Almanac

Astronomy

Jun. 03, 2015 Rise Set
Actual Time
Civil Twilight
Nautical Twilight
Astronomical Twilight
Moon
Length of Visible Light
Length of Day
Tomorrow will be .
, % of the Moon is Illuminated

Today's Extremes

Country Highs Country Lows

Community

WunderPhotos

Upload Photos

1,826,246 photos uploaded!

WunderBlogs® & News

Nearby

Air Quality

  Air Quality AQ Index Pollutant
Not available.

Snow Depth

Station Depth Elevation

Earthquake Activity

City Distance Mag. Time & Date
Minimum magnitude displayed is 2.5.

Coastal Water Temperatures

Place Temperature

Stations

Nearby Weather Stations

Station Location Temp. Windchill Dew Point Humidity Wind Precip. Elev Updated Type